Time;durP1;ratioP1;P1;durP2;ratioP2;P2;SDS_P1;SDS_P2;PMS_P1;PMS_P2;Temp;Humidity;BMP_temperature;BMP_pressure;BME280_temperature;BME280_humidity;BME280_pressure;Samples;Min_cycle;Max_cycle;Signal;HPM_P1;HPM_P2
2023/02/27 00:02:12;;;;;;;22.40;6.97;;;;;;;15.26;51.84;98601.44;5123577;27;20019;-74
2023/02/27 00:04:38;;;;;;;21.38;4.72;;;;;;;15.36;51.57;98591.44;5130983;27;20031;-74
2023/02/27 00:07:04;;;;;;;20.58;6.13;;;;;;;15.33;51.79;98606.31;5112834;27;20031;-74
2023/02/27 00:09:29;;;;;;;23.17;5.85;;;;;;;15.29;52.04;98597.84;5122465;27;20096;-74
2023/02/27 00:11:55;;;;;;;22.60;6.53;;;;;;;15.24;51.93;98598.19;5126678;27;20015;-74
2023/02/27 00:14:21;;;;;;;23.80;6.28;;;;;;;15.38;51.82;98596.72;5111542;28;20098;-74
2023/02/27 00:16:46;;;;;;;25.27;6.00;;;;;;;14.85;53.43;98590.16;5112788;28;20103;-74
2023/02/27 00:19:12;;;;;;;28.33;7.20;;;;;;;15.11;52.58;98594.06;5130738;27;20497;-74
2023/02/27 00:21:37;;;;;;;23.27;6.65;;;;;;;15.12;52.06;98595.66;5132066;27;20088;-74
2023/02/27 00:24:03;;;;;;;20.48;5.43;;;;;;;15.24;51.84;98603.84;5131872;27;20414;-74
2023/02/27 00:26:29;;;;;;;25.38;7.18;;;;;;;14.87;52.63;98593.41;5122844;27;20032;-74
2023/02/27 00:28:54;;;;;;;19.38;5.82;;;;;;;14.86;52.97;98583.34;5110240;28;20070;-74
2023/02/27 00:31:19;;;;;;;23.02;5.45;;;;;;;14.90;52.37;98589.00;5114531;28;20030;-75
2023/02/27 00:33:45;;;;;;;21.23;5.55;;;;;;;14.90;52.72;98594.63;5124882;28;20023;-74
2023/02/27 00:36:10;;;;;;;30.00;6.35;;;;;;;14.86;53.00;98597.41;5111455;28;20397;-75
2023/02/27 00:38:36;;;;;;;23.27;7.05;;;;;;;14.51;54.45;98598.59;5114471;28;20054;-74
2023/02/27 00:41:01;;;;;;;24.40;5.93;;;;;;;14.54;54.86;98589.38;5131969;27;20019;-74
2023/02/27 00:43:27;;;;;;;28.08;6.28;;;;;;;14.38;54.81;98612.09;5130326;28;20024;-74
2023/02/27 00:45:52;;;;;;;25.27;5.90;;;;;;;14.64;54.22;98614.03;5126311;28;20033;-75
2023/02/27 00:48:18;;;;;;;18.90;4.63;;;;;;;14.70;53.98;98615.28;5129892;28;20031;-75
2023/02/27 00:50:44;;;;;;;22.48;6.78;;;;;;;14.56;54.68;98607.50;5111304;28;20028;-75
2023/02/27 00:53:09;;;;;;;23.75;6.03;;;;;;;14.57;54.40;98597.03;5111351;28;20030;-75
2023/02/27 00:55:35;;;;;;;32.47;6.85;;;;;;;14.49;54.27;98615.84;5110869;28;20106;-75
2023/02/27 00:58:00;;;;;;;17.27;5.72;;;;;;;14.35;55.30;98626.91;5114404;28;20409;-75
2023/02/27 01:00:26;;;;;;;22.92;6.55;;;;;;;14.15;56.23;98619.44;5126402;27;20513;-74
2023/02/27 01:02:51;;;;;;;23.40;5.78;;;;;;;14.25;56.04;98620.75;5125020;28;20087;-75
2023/02/27 01:05:17;;;;;;;23.05;6.97;;;;;;;14.22;56.55;98632.78;5129076;28;20035;-74
2023/02/27 01:07:43;;;;;;;25.98;5.88;;;;;;;14.24;56.11;98621.94;5111247;28;20030;-74
2023/02/27 01:10:10;;;;;;;21.23;6.75;;;;;;;14.27;56.65;98628.81;5111659;28;20027;-75
2023/02/27 01:12:36;;;;;;;13.60;4.97;;;;;;;14.39;55.93;98620.16;5131814;27;20490;-75
2023/02/27 01:15:02;;;;;;;11.88;5.07;;;;;;;14.45;55.67;98624.22;5131580;28;20038;-75
2023/02/27 01:17:28;;;;;;;26.88;6.32;;;;;;;13.71;57.79;98612.34;5110389;27;20405;-75
2023/02/27 01:19:53;;;;;;;21.73;6.18;;;;;;;13.46;59.10;98625.97;5109671;28;20028;-75
2023/02/27 01:22:19;;;;;;;21.05;6.00;;;;;;;13.49;59.81;98630.84;5114888;28;20038;-75
2023/02/27 01:24:44;;;;;;;20.27;6.05;;;;;;;12.83;62.70;98628.03;5113403;28;20124;-75
2023/02/27 01:27:10;;;;;;;16.83;5.43;;;;;;;12.63;64.23;98645.69;5113483;28;20042;-75
2023/02/27 01:29:35;;;;;;;20.00;5.35;;;;;;;12.72;64.49;98639.03;5114939;27;20027;-75
2023/02/27 01:32:01;;;;;;;27.92;5.57;;;;;;;13.08;63.15;98642.53;5124648;27;20409;-75
2023/02/27 01:34:26;;;;;;;18.95;5.13;;;;;;;13.31;63.06;98670.66;5123826;27;20153;-74
2023/02/27 01:36:52;;;;;;;19.77;6.28;;;;;;;13.50;62.82;98676.63;5135210;27;20455;-74
2023/02/27 01:39:17;;;;;;;19.08;6.82;;;;;;;13.47;62.35;98672.53;5135006;27;20110;-74
2023/02/27 01:41:43;;;;;;;24.92;5.78;;;;;;;13.62;62.14;98676.44;5117524;27;20084;-74
2023/02/27 01:44:11;;;;;;;16.33;5.15;;;;;;;13.66;62.31;98684.94;5114499;28;20027;-74
2023/02/27 01:46:37;;;;;;;21.40;6.05;;;;;;;13.35;63.42;98687.56;5114455;27;20456;-75
2023/02/27 01:49:12;;;;;;;20.73;5.85;;;;;;;13.38;63.13;98674.75;5113173;28;20027;-75
2023/02/27 01:51:50;;;;;;;25.15;6.63;;;;;;;12.90;65.45;98689.88;5114435;28;20110;-74
2023/02/27 01:54:21;;;;;;;19.50;6.65;;;;;;;13.07;65.56;98691.44;5133536;27;20076;-74
2023/02/27 01:56:47;;;;;;;13.30;4.65;;;;;;;12.82;66.83;98691.75;5134639;27;20512;-74
2023/02/27 01:59:15;;;;;;;17.35;6.00;;;;;;;13.17;65.75;98699.25;5123032;27;20123;-74
2023/02/27 02:01:41;;;;;;;18.65;5.32;;;;;;;13.23;65.42;98690.53;5120971;27;20031;-74
2023/02/27 02:04:25;;;;;;;24.92;5.60;;;;;;;13.34;64.68;98678.31;5131524;27;20030;-74
2023/02/27 02:07:03;;;;;;;17.58;6.72;;;;;;;13.40;64.52;98672.41;5111506;28;20024;-75
2023/02/27 02:09:31;;;;;;;23.98;6.28;;;;;;;13.61;63.21;98686.84;5113982;28;20020;-75
2023/02/27 02:11:58;;;;;;;15.05;6.90;;;;;;;13.56;63.30;98670.31;5125754;27;20027;-75
2023/02/27 02:14:24;;;;;;;18.58;5.75;;;;;;;13.43;63.72;98660.41;5134471;27;20080;-75
2023/02/27 02:17:11;;;;;;;29.73;6.88;;;;;;;13.38;63.91;98669.13;5123394;27;20442;-75
2023/02/27 02:19:42;;;;;;;29.70;6.50;;;;;;;13.33;64.09;98657.03;5113098;28;20025;-75
2023/02/27 02:22:50;;;;;;;22.58;6.55;;;;;;;13.52;63.04;98663.81;5112549;28;20062;-74
2023/02/27 02:25:34;;;;;;;17.08;6.30;;;;;;;12.87;65.60;98669.00;5092938;28;20032;-75
2023/02/27 02:28:11;;;;;;;20.75;5.97;;;;;;;12.99;64.95;98658.81;5096504;27;20054;-75
2023/02/27 02:30:58;;;;;;;28.65;7.47;;;;;;;12.97;63.56;98633.91;5113334;28;20054;-75
2023/02/27 02:34:17;;;;;;;29.88;6.18;;;;;;;13.15;59.23;98653.06;5093164;28;20047;-75
2023/02/27 02:37:19;;;;;;;29.02;7.93;;;;;;;13.38;58.95;98646.66;5049142;28;20112;-75
2023/02/27 02:39:53;;;;;;;32.08;6.50;;;;;;;13.37;59.27;98661.91;5112083;28;20486;-75
2023/02/27 02:42:47;;;;;;;31.23;7.55;;;;;;;13.25;59.65;98660.09;5112047;28;20413;-74
2023/02/27 02:45:13;;;;;;;30.65;6.53;;;;;;;13.26;59.37;98661.72;5111854;28;20023;-74
2023/02/27 02:48:13;;;;;;;30.73;6.57;;;;;;;13.36;58.79;98669.53;5122916;27;20078;-75
2023/02/27 02:50:57;;;;;;;36.80;7.43;;;;;;;13.48;57.93;98680.63;5112393;27;20128;-74
2023/02/27 02:53:29;;;;;;;23.63;5.55;;;;;;;13.47;57.72;98680.97;5113120;28;20409;-74
2023/02/27 02:56:27;;;;;;;34.60;6.20;;;;;;;13.56;58.04;98692.78;5111713;28;20160;-74
2023/02/27 02:59:04;;;;;;;40.65;7.40;;;;;;;13.61;57.58;98689.66;5116018;27;20400;-75
2023/02/27 03:01:39;;;;;;;29.95;7.03;;;;;;;13.82;57.26;98702.44;5127718;27;20030;-75
2023/02/27 03:04:30;;;;;;;24.65;7.05;;;;;;;13.55;57.99;98716.44;5128848;27;20102;-75
2023/02/27 03:07:12;;;;;;;32.15;6.90;;;;;;;13.67;57.73;98731.50;5133229;27;20022;-75
2023/02/27 03:09:44;;;;;;;19.58;4.88;;;;;;;13.55;58.73;98752.16;5133291;27;20039;-75
2023/02/27 03:12:13;;;;;;;20.45;6.68;;;;;;;13.30;60.04;98753.28;5116127;27;20110;-74
2023/02/27 03:14:53;;;;;;;19.65;5.38;;;;;;;13.61;59.48;98757.09;5112562;28;20027;-75
2023/02/27 03:17:38;;;;;;;34.13;6.28;;;;;;;13.61;59.05;98750.66;5111227;28;20154;-75
2023/02/27 03:20:07;;;;;;;28.70;5.82;;;;;;;13.74;58.87;98760.53;5112579;28;20102;-75
2023/02/27 03:22:39;;;;;;;28.52;5.78;;;;;;;13.59;59.25;98756.66;5129816;27;20023;-75
2023/02/27 03:25:09;;;;;;;21.38;5.57;;;;;;;13.60;59.23;98760.28;5132733;27;20039;-75
2023/02/27 03:27:37;;;;;;;;;;;;;;;13.72;58.79;98779.78;5122683;27;20118;-75
2023/02/27 03:30:14;;;;;;;29.45;6.70;;;;;;;13.47;59.28;98785.75;5112434;28;19907;-75
2023/02/27 03:32:57;;;;;;;29.35;7.65;;;;;;;13.06;61.15;98788.91;5112214;27;20034;-75
2023/02/27 03:35:39;;;;;;;28.33;7.32;;;;;;;13.02;61.25;98795.63;5090535;28;20402;-75
2023/02/27 03:38:23;;;;;;;33.97;6.68;;;;;;;12.86;61.52;98801.28;5090830;28;20487;-75
2023/02/27 03:41:02;;;;;;;29.50;5.47;;;;;;;12.90;61.98;98802.16;5104782;28;20046;-75
2023/02/27 03:43:39;;;;;;;24.03;7.40;;;;;;;12.76;62.92;98797.84;5113629;27;20019;-74
2023/02/27 03:46:13;;;;;;;25.40;7.38;;;;;;;12.86;63.71;98813.31;5132653;27;20370;-74
2023/02/27 03:48:43;;;;;;;23.48;7.65;;;;;;;12.83;63.93;98802.03;5132575;27;20509;-75
2023/02/27 03:51:14;;;;;;;27.67;7.68;;;;;;;12.78;64.22;98808.72;5114861;27;20110;-75
2023/02/27 03:53:54;;;;;;;27.45;8.05;;;;;;;12.64;64.81;98801.59;5115856;27;20034;-75
2023/02/27 03:56:26;;;;;;;29.00;6.20;;;;;;;12.58;64.66;98819.09;5121185;27;20024;-75
2023/02/27 03:58:52;;;;;;;19.88;6.95;;;;;;;12.77;64.41;98826.75;5111852;28;20401;-75
2023/02/27 04:01:18;;;;;;;34.40;8.63;;;;;;;12.89;63.72;98826.63;5112128;28;20034;-75
2023/02/27 04:03:58;;;;;;;29.58;8.93;;;;;;;12.84;63.69;98837.31;5115361;27;20023;-75
2023/02/27 04:09:34;;;;;;;36.15;8.70;;;;;;;12.61;63.33;98875.28;5131643;27;20096;-73
2023/02/27 04:12:11;;;;;;;37.70;10.70;;;;;;;12.36;63.85;98900.69;5119884;27;20039;-74
2023/02/27 04:15:02;;;;;;;29.83;8.13;;;;;;;12.11;65.17;98905.66;5132207;27;20060;-74
2023/02/27 04:17:32;;;;;;;28.90;7.82;;;;;;;12.03;65.58;98929.06;5115183;27;20102;-74
2023/02/27 04:20:16;;;;;;;40.53;12.63;;;;;;;11.99;67.82;98973.75;5117126;27;20033;-74
2023/02/27 04:22:49;;;;;;;32.15;8.23;;;;;;;12.24;64.75;98995.31;5129309;27;20485;-74
2023/02/27 04:25:51;;;;;;;24.20;6.43;;;;;;;12.32;62.58;99030.78;5111282;28;20035;-74
2023/02/27 04:28:26;;;;;;;15.55;3.30;;;;;;;12.33;61.62;99016.41;5095922;28;20043;-74
2023/02/27 04:30:52;;;;;;;10.93;2.40;;;;;;;12.28;61.75;99041.91;5091563;28;20526;-74
2023/02/27 04:33:53;;;;;;;8.73;2.78;;;;;;;12.21;62.09;99058.50;5130371;28;20113;-74
2023/02/27 04:36:38;;;;;;;14.07;2.17;;;;;;;12.14;62.71;99042.31;5121717;27;20039;-74
2023/02/27 04:39:07;;;;;;;10.85;1.17;;;;;;;12.03;63.29;99046.78;5117996;27;20028;-74
2023/02/27 04:41:42;;;;;;;3.83;1.13;;;;;;;11.94;64.91;99058.94;5110119;28;20106;-74
2023/02/27 04:44:10;;;;;;;4.68;0.77;;;;;;;11.75;65.96;99064.34;5104860;28;20366;-74
2023/02/27 05:12:47;;;;;;;8.55;2.83;;;;;;;10.47;91.97;99213.13;5150810;27;21228;-81
2023/02/27 05:15:24;;;;;;;9.30;2.63;;;;;;;10.46;93.20;99208.69;5139584;27;20508;-82
2023/02/27 05:18:04;;;;;;;5.70;2.40;;;;;;;10.30;94.53;99199.25;5148785;27;20031;-78
2023/02/27 05:20:50;;;;;;;13.50;3.63;;;;;;;10.20;95.75;99178.13;5148708;27;20105;-78
2023/02/27 05:23:42;;;;;;;5.55;3.00;;;;;;;10.19;96.79;99126.97;5148510;27;20067;-77
2023/02/27 05:26:46;;;;;;;14.07;3.60;;;;;;;10.43;95.37;99102.28;5148622;27;20035;-77
2023/02/27 05:29:41;;;;;;;9.77;5.22;;;;;;;10.56;96.67;99123.59;5117187;27;20110;-75
2023/02/27 05:32:22;;;;;;;10.57;5.35;;;;;;;10.75;95.47;99117.47;5132260;27;20496;-76
2023/02/27 05:35:03;;;;;;;13.35;4.53;;;;;;;10.98;94.53;99091.88;5149598;27;20027;-76
2023/02/27 05:37:34;;;;;;;14.68;4.20;;;;;;;10.93;91.32;99080.91;5146127;27;20304;-77
2023/02/27 05:40:07;;;;;;;10.68;4.35;;;;;;;11.15;91.54;99096.44;5147956;27;20415;-77
2023/02/27 05:42:38;;;;;;;15.13;3.55;;;;;;;11.25;90.59;99109.16;5148192;27;20394;-77
2023/02/27 05:45:12;;;;;;;10.05;4.32;;;;;;;11.09;91.55;99112.63;5147674;27;20026;-77
2023/02/27 05:47:43;;;;;;;14.32;8.48;;;;;;;11.14;89.66;99110.78;5148514;27;20019;-76
2023/02/27 05:50:15;;;;;;;11.32;5.78;;;;;;;11.22;91.63;99121.88;5147901;27;20019;-77
2023/02/27 05:52:42;;;;;;;5.45;2.45;;;;;;;11.27;92.93;99120.84;5140999;27;20019;-77
2023/02/27 05:55:30;;;;;;;6.10;2.15;;;;;;;11.11;93.96;99115.09;5145604;27;20031;-76
2023/02/27 05:58:04;;;;;;;7.82;2.22;;;;;;;11.07;94.12;99125.34;5146629;27;20126;-73
2023/02/27 06:00:57;;;;;;;6.93;2.53;;;;;;;11.31;92.17;99123.75;5148438;27;20075;-77
2023/02/27 06:03:24;;;;;;;5.25;2.80;;;;;;;11.19;93.88;99116.16;5139125;27;20035;-74
2023/02/27 06:05:56;;;;;;;8.93;3.60;;;;;;;11.58;92.85;99113.03;5134449;27;20106;-75
2023/02/27 06:08:22;;;;;;;3.75;2.08;;;;;;;11.64;91.39;99115.25;5126081;28;20034;-76
2023/02/27 06:10:51;;;;;;;6.50;2.05;;;;;;;11.74;91.32;99130.75;5128110;27;20507;-72
2023/02/27 06:13:17;;;;;;;7.18;1.70;;;;;;;12.08;89.30;99134.25;5113570;27;20042;-72
2023/02/27 06:15:45;;;;;;;14.70;2.80;;;;;;;12.05;87.29;99142.53;5113920;28;20019;-72
2023/02/27 06:18:12;;;;;;;9.95;2.90;;;;;;;12.17;86.73;99138.91;5105766;28;20089;-72
2023/02/27 06:20:38;;;;;;;11.60;2.10;;;;;;;11.98;88.82;99126.28;5120489;27;20426;-71
2023/02/27 06:23:05;;;;;;;8.77;3.33;;;;;;;11.74;90.36;99136.34;5132210;27;20425;-72
2023/02/27 06:25:30;;;;;;;7.13;2.47;;;;;;;11.82;89.22;99142.19;5130890;27;20027;-72
2023/02/27 06:27:56;;;;;;;6.55;2.72;;;;;;;11.80;88.81;99143.38;5126920;27;20111;-70
2023/02/27 06:30:22;;;;;;;3.58;1.88;;;;;;;11.88;88.30;99141.59;5118066;27;20080;-71
2023/02/27 06:32:47;;;;;;;6.60;1.95;;;;;;;12.26;86.09;99138.75;5116887;27;20508;-71
2023/02/27 06:35:12;;;;;;;2.88;1.80;;;;;;;12.31;85.63;99124.50;5116672;27;20088;-71
2023/02/27 06:37:38;;;;;;;3.65;1.48;;;;;;;12.56;84.73;99133.63;5132009;27;20027;-71
2023/02/27 06:40:10;;;;;;;4.45;1.50;;;;;;;12.69;79.98;99137.22;5131429;27;20030;-72
2023/02/27 06:42:36;;;;;;;5.32;1.70;;;;;;;12.75;78.98;99155.41;5130330;27;20031;-72
2023/02/27 06:45:06;;;;;;;8.85;4.38;;;;;;;12.80;82.21;99162.75;5110254;27;20031;-72
2023/02/27 06:47:31;;;;;;;10.80;4.97;;;;;;;13.01;82.44;99173.75;5117588;27;20062;-72
2023/02/27 06:49:57;;;;;;;6.90;2.20;;;;;;;13.33;80.75;99173.81;5107318;27;20556;-72
2023/02/27 06:52:22;;;;;;;5.82;1.63;;;;;;;13.17;76.20;99182.22;5111081;28;20047;-72
2023/02/27 06:54:48;;;;;;;8.07;1.40;;;;;;;13.22;74.46;99178.34;5109255;28;20458;-72
2023/02/27 06:57:14;;;;;;;6.43;2.55;;;;;;;13.28;75.16;99182.53;5111041;28;20106;-71
2023/02/27 06:59:39;;;;;;;10.68;2.63;;;;;;;13.23;75.85;99187.59;5111144;28;20042;-76
2023/02/27 07:02:05;;;;;;;12.93;3.70;;;;;;;13.45;75.60;99192.63;5110838;28;20023;-74
2023/02/27 07:04:30;;;;;;;2.47;1.70;;;;;;;13.66;74.84;99193.56;5103469;27;20028;-74
2023/02/27 07:06:56;;;;;;;7.30;3.13;;;;;;;13.64;73.62;99198.72;5099966;27;20020;-74
2023/02/27 07:09:22;;;;;;;25.15;10.85;;;;;;;13.61;78.40;99206.66;5108030;28;20054;-75
2023/02/27 07:11:47;;;;;;;6.78;2.97;;;;;;;13.88;78.86;99220.19;5110759;28;20024;-75
2023/02/27 07:14:15;;;;;;;15.35;4.70;;;;;;;14.07;77.50;99222.25;5126456;27;20504;-74
2023/02/27 07:16:41;;;;;;;8.77;3.78;;;;;;;14.31;78.73;99226.03;5128721;27;20031;-74
2023/02/27 07:19:07;;;;;;;6.05;2.30;;;;;;;14.33;77.77;99226.47;5098502;28;20059;-71
2023/02/27 07:21:32;;;;;;;11.50;3.50;;;;;;;14.25;74.85;99233.94;5102466;27;20024;-71
2023/02/27 07:23:58;;;;;;;9.75;4.38;;;;;;;14.12;72.71;99232.41;5106107;27;20031;-71
2023/02/27 07:26:23;;;;;;;4.97;1.98;;;;;;;14.25;72.06;99231.13;5103245;28;20008;-72
2023/02/27 07:28:49;;;;;;;8.73;2.78;;;;;;;14.27;71.61;99222.31;5111717;28;20024;-72
2023/02/27 07:31:14;;;;;;;12.93;2.28;;;;;;;14.30;71.15;99230.03;5112363;27;20019;-72
2023/02/27 07:33:40;;;;;;;5.10;1.88;;;;;;;14.43;70.21;99225.91;5111150;28;20034;-71
2023/02/27 07:36:06;;;;;;;2.65;1.50;;;;;;;14.29;66.67;99222.75;5111106;28;20027;-72
2023/02/27 07:38:32;;;;;;;6.57;2.35;;;;;;;14.45;67.83;99219.91;5104153;28;20028;-72
2023/02/27 07:40:57;;;;;;;6.50;3.17;;;;;;;14.63;68.27;99208.22;5100153;28;20030;-72
2023/02/27 07:43:24;;;;;;;12.75;5.25;;;;;;;14.64;67.01;99221.13;5112513;28;20102;-71
2023/02/27 07:45:50;;;;;;;9.02;5.13;;;;;;;14.44;68.01;99224.72;5111276;28;20467;-72
2023/02/27 07:48:17;;;;;;;15.70;6.43;;;;;;;14.30;68.31;99230.03;5112473;28;20028;-71
2023/02/27 07:50:42;;;;;;;6.78;2.70;;;;;;;14.43;68.01;99228.72;5111724;28;20012;-71
2023/02/27 07:53:08;;;;;;;6.65;2.40;;;;;;;14.72;66.30;99214.50;5109017;28;20043;-73
2023/02/27 07:55:35;;;;;;;4.15;2.05;;;;;;;15.10;67.99;99220.50;5110076;27;20055;-72
2023/02/27 07:58:00;;;;;;;2.95;1.60;;;;;;;15.11;66.80;99220.09;5109046;28;20034;-72
2023/02/27 08:00:27;;;;;;;5.18;1.75;;;;;;;15.23;67.26;99223.97;5109775;28;20016;-70
2023/02/27 08:02:52;;;;;;;5.22;1.63;;;;;;;15.27;66.51;99225.66;5109069;28;20039;-72
2023/02/27 08:05:17;;;;;;;4.55;1.85;;;;;;;15.10;65.43;99237.41;5110303;28;20501;-72
2023/02/27 08:07:46;;;;;;;4.78;1.63;;;;;;;14.85;64.69;99244.13;5110544;28;20470;-71
2023/02/27 08:10:12;;;;;;;10.27;1.85;;;;;;;14.86;66.36;99256.22;5109340;27;20040;-70
2023/02/27 08:12:38;;;;;;;2.88;1.48;;;;;;;15.37;65.26;99266.50;5126953;27;20031;-69
2023/02/27 08:15:04;;;;;;;4.80;2.08;;;;;;;15.13;65.51;99262.00;5132847;27;20053;-69
2023/02/27 08:17:29;;;;;;;5.68;2.03;;;;;;;15.02;66.39;99267.41;5129200;27;20027;-68
2023/02/27 08:19:55;;;;;;;8.80;2.28;;;;;;;15.32;63.69;99268.78;5124847;27;20063;-71
2023/02/27 08:22:20;;;;;;;2.80;1.50;;;;;;;15.29;64.06;99271.16;5106721;28;20043;-70
2023/02/27 08:24:46;;;;;;;4.20;2.20;;;;;;;15.45;63.08;99273.09;5111119;28;20497;-70
2023/02/27 08:27:11;;;;;;;38.00;3.03;;;;;;;15.28;64.30;99269.53;5110104;28;20497;-71
2023/02/27 08:29:37;;;;;;;9.15;1.52;;;;;;;15.01;64.96;99275.03;5110223;28;20015;-69
2023/02/27 08:32:03;;;;;;;12.07;2.63;;;;;;;15.25;65.70;99273.13;5110274;28;20517;-69
2023/02/27 08:34:29;;;;;;;6.82;1.13;;;;;;;15.21;64.05;99277.03;5106500;28;20498;-72
2023/02/27 08:36:55;;;;;;;5.93;1.50;;;;;;;15.35;63.95;99277.31;5097649;27;20055;-72
2023/02/27 08:39:22;;;;;;;2.97;1.30;;;;;;;15.44;63.53;99277.09;5107819;28;20020;-74
2023/02/27 08:41:49;;;;;;;5.28;1.75;;;;;;;15.49;62.48;99278.78;5110139;28;20057;-72
2023/02/27 08:44:15;;;;;;;10.00;3.95;;;;;;;15.78;61.68;99282.97;5110536;28;20032;-69
2023/02/27 08:46:40;;;;;;;4.18;1.65;;;;;;;15.83;62.27;99290.28;5110004;28;20385;-78
2023/02/27 08:49:05;;;;;;;9.65;2.67;;;;;;;15.94;60.39;99279.25;5111428;28;20050;-72
2023/02/27 08:51:31;;;;;;;2.90;1.35;;;;;;;15.94;59.32;99293.34;5108108;28;20096;-72
2023/02/27 08:53:57;;;;;;;6.68;1.58;;;;;;;15.95;58.81;99289.34;5111482;28;20100;-72
2023/02/27 08:56:27;;;;;;;10.25;2.17;;;;;;;16.02;59.27;99291.47;5105646;28;20027;-71
2023/02/27 08:58:53;;;;;;;4.38;1.40;;;;;;;16.27;58.99;99286.22;5105762;28;20134;-71
2023/02/27 09:01:19;;;;;;;9.55;1.50;;;;;;;16.35;58.53;99295.63;5110200;28;20115;-71
2023/02/27 09:03:44;;;;;;;3.15;1.73;;;;;;;16.30;58.75;99295.94;5111011;28;20176;-71
2023/02/27 09:06:10;;;;;;;11.57;1.75;;;;;;;16.50;56.90;99305.13;5111133;28;20031;-71
2023/02/27 09:08:36;;;;;;;5.30;1.63;;;;;;;16.73;57.51;99310.75;5111253;28;20047;-71
2023/02/27 09:11:02;;;;;;;9.77;1.83;;;;;;;16.49;56.49;99304.34;5109907;28;20043;-73
2023/02/27 09:13:28;;;;;;;4.70;1.55;;;;;;;16.46;57.59;99301.44;5109524;28;20028;-72
2023/02/27 09:15:53;;;;;;;4.90;1.60;;;;;;;16.75;57.46;99305.53;5105413;28;20115;-72
2023/02/27 09:18:19;;;;;;;2.50;1.10;;;;;;;16.76;56.21;99320.44;5110020;28;20039;-74
2023/02/27 09:20:45;;;;;;;3.25;1.50;;;;;;;16.50;55.42;99308.78;5110038;28;20024;-74
2023/02/27 09:23:10;;;;;;;5.75;1.50;;;;;;;16.50;56.55;99311.59;5113040;28;20208;-72
2023/02/27 09:25:36;;;;;;;3.88;1.00;;;;;;;16.66;56.38;99310.63;5120308;27;20024;-72
2023/02/27 09:28:02;;;;;;;3.97;1.00;;;;;;;16.65;55.03;99301.34;5112395;28;20024;-71
2023/02/27 09:30:28;;;;;;;7.05;2.03;;;;;;;16.64;55.76;99296.88;5110588;28;20030;-70
2023/02/27 09:32:53;;;;;;;2.33;1.50;;;;;;;16.70;56.91;99291.72;5105688;28;20032;-70
2023/02/27 09:35:19;;;;;;;5.00;1.20;;;;;;;16.67;56.62;99304.59;5105347;28;20034;-71
2023/02/27 09:37:45;;;;;;;7.30;1.05;;;;;;;16.50;55.30;99299.50;5102949;28;20110;-72
2023/02/27 09:40:27;;;;;;;3.15;1.65;;;;;;;16.80;54.69;99299.53;5110636;28;20024;-72
2023/02/27 09:42:56;;;;;;;16.45;2.80;;;;;;;16.81;53.70;99298.31;5095726;28;20040;-72
2023/02/27 09:45:30;;;;;;;2.10;1.20;;;;;;;16.93;53.29;99304.94;5109452;28;20023;-72
2023/02/27 09:48:25;;;;;;;6.85;1.38;;;;;;;16.84;52.81;99308.06;5110486;28;20531;-72
2023/02/27 09:50:51;;;;;;;5.15;1.67;;;;;;;16.93;53.00;99307.78;5106880;28;20709;-71
2023/02/27 09:53:38;;;;;;;5.10;1.35;;;;;;;16.96;54.49;99304.19;5114611;28;20023;-73
2023/02/27 09:56:41;;;;;;;8.90;1.50;;;;;;;17.25;52.23;99305.41;5114531;27;20051;-74
2023/02/27 09:59:33;;;;;;;8.10;2.45;;;;;;;17.53;53.83;99298.47;5112935;27;20092;-74
2023/02/27 10:02:36;;;;;;;7.15;2.00;;;;;;;17.56;52.93;99298.88;5097759;28;20138;-73
2023/02/27 10:05:16;;;;;;;11.73;3.20;;;;;;;17.36;53.88;99294.22;5099440;27;20027;-74
2023/02/27 10:07:53;;;;;;;6.82;2.83;;;;;;;17.53;55.94;99292.00;5112283;27;20051;-74
2023/02/27 10:10:31;;;;;;;9.18;2.35;;;;;;;17.79;55.05;99299.53;5112568;28;20559;-74
2023/02/27 10:13:15;;;;;;;10.15;2.67;;;;;;;18.03;54.39;99291.72;5112329;28;20026;-71
2023/02/27 10:15:47;;;;;;;4.43;1.58;;;;;;;17.96;53.23;99292.44;5112937;27;20015;-71
2023/02/27 10:18:18;;;;;;;8.35;2.70;;;;;;;18.10;52.77;99288.97;5134991;27;20041;-71
2023/02/27 10:20:55;;;;;;;5.63;2.17;;;;;;;17.78;51.03;99283.78;5132089;27;20031;-71
2023/02/27 10:23:44;;;;;;;6.07;2.85;;;;;;;17.68;53.74;99288.13;5098492;27;20030;-71
2023/02/27 10:26:21;;;;;;;10.73;2.80;;;;;;;17.58;53.85;99282.34;5128197;27;20746;-71
2023/02/27 10:28:47;;;;;;;14.68;2.90;;;;;;;17.70;52.67;99290.56;5108825;28;20030;-72
2023/02/27 10:31:24;;;;;;;10.02;2.45;;;;;;;17.53;52.81;99275.03;5107135;27;20489;-74
2023/02/27 10:33:51;;;;;;;7.63;2.30;;;;;;;17.44;52.96;99283.81;5112149;27;20114;-77
2023/02/27 10:36:18;;;;;;;5.88;2.88;;;;;;;17.34;53.27;99281.69;5114171;28;20513;-74
2023/02/27 10:38:49;;;;;;;10.43;1.92;;;;;;;17.67;51.49;99274.38;5115226;27;20130;-72
2023/02/27 10:41:17;;;;;;;10.63;2.88;;;;;;;17.54;53.03;99271.81;5119395;27;20486;-71
2023/02/27 10:43:43;;;;;;;9.15;2.58;;;;;;;17.58;52.10;99265.38;5099807;28;20106;-74
2023/02/27 10:46:20;;;;;;;10.80;2.00;;;;;;;17.65;52.01;99265.47;5110073;28;20031;-73
2023/02/27 10:48:46;;;;;;;11.48;2.20;;;;;;;17.71;51.81;99271.59;5112837;27;20042;-71
2023/02/27 10:51:25;;;;;;;8.80;2.38;;;;;;;17.66;51.67;99269.91;5112375;27;20016;-73
2023/02/27 10:54:15;;;;;;;15.18;3.22;;;;;;;17.48;51.76;99267.69;5108480;28;20493;-69
2023/02/27 10:56:43;;;;;;;17.27;3.33;;;;;;;17.47;51.95;99260.41;5112524;28;20122;-70
2023/02/27 10:59:19;;;;;;;9.05;3.10;;;;;;;17.47;53.41;99256.78;5102601;27;20024;-77
2023/02/27 11:01:50;;;;;;;11.07;2.85;;;;;;;17.43;53.25;99242.63;5106278;28;20028;-75
2023/02/27 11:04:28;;;;;;;15.52;3.83;;;;;;;17.54;53.95;99245.53;5101424;28;20024;-76
2023/02/27 11:06:55;;;;;;;18.17;3.47;;;;;;;17.72;52.00;99250.59;5103468;28;20471;-77
2023/02/27 11:09:22;;;;;;;11.57;3.25;;;;;;;17.86;52.14;99247.88;5108730;28;20051;-79
2023/02/27 11:11:49;;;;;;;10.48;2.90;;;;;;;17.95;51.51;99251.19;5103670;28;20023;-80
2023/02/27 11:14:18;;;;;;;11.80;2.90;;;;;;;17.83;49.96;99243.00;5103684;27;20036;-76
2023/02/27 11:16:52;;;;;;;14.25;3.08;;;;;;;18.00;49.35;99241.53;5103536;27;20050;-77
2023/02/27 11:19:30;;;;;;;24.13;4.95;;;;;;;18.17;49.17;99247.75;5104728;27;20039;-78
2023/02/27 11:22:17;;;;;;;17.95;3.63;;;;;;;18.43;46.55;99237.44;5106992;28;20027;-74
2023/02/27 11:24:43;;;;;;;14.10;3.35;;;;;;;18.50;45.72;99238.28;5107199;28;20404;-73
2023/02/27 11:27:29;;;;;;;19.50;2.75;;;;;;;18.58;44.67;99230.66;5108743;28;20491;-73
2023/02/27 11:30:01;;;;;;;15.85;4.38;;;;;;;18.38;45.12;99228.09;5127989;27;20039;-73
2023/02/27 11:32:40;;;;;;;13.10;3.75;;;;;;;18.20;45.70;99227.97;5113929;27;20027;-72
2023/02/27 11:35:22;;;;;;;11.23;3.20;;;;;;;18.15;46.80;99228.31;5110122;28;20485;-72
2023/02/27 11:37:50;;;;;;;18.73;5.45;;;;;;;17.82;47.52;99222.38;5104932;28;20416;-72
2023/02/27 11:40:18;;;;;;;15.18;3.03;;;;;;;17.93;46.95;99221.66;5110930;28;20047;-72
2023/02/27 11:42:51;;;;;;;14.48;4.32;;;;;;;18.10;46.56;99231.53;5109161;28;20832;-73
2023/02/27 11:45:38;;;;;;;9.82;3.60;;;;;;;18.13;46.84;99224.28;5106998;27;20020;-72
2023/02/27 11:48:23;;;;;;;20.48;4.68;;;;;;;18.07;45.98;99224.63;5111534;28;20038;-72
2023/02/27 11:51:11;;;;;;;13.43;3.47;;;;;;;18.21;46.54;99228.78;5112266;28;20020;-72
2023/02/27 11:53:52;;;;;;;16.00;4.00;;;;;;;18.42;46.39;99232.97;5106309;28;20019;-72
2023/02/27 11:56:22;;;;;;;14.50;4.95;;;;;;;18.49;44.94;99224.53;5111887;27;20081;-72
2023/02/27 11:58:58;;;;;;;13.25;5.18;;;;;;;18.54;45.54;99221.31;5112083;28;20023;-72
2023/02/27 12:01:31;;;;;;;18.83;4.07;;;;;;;18.45;46.17;99209.53;5110642;28;20024;-72
2023/02/27 12:04:03;;;;;;;18.15;5.25;;;;;;;18.31;45.11;99210.25;5109425;27;20059;-73
2023/02/27 12:06:36;;;;;;;25.50;5.07;;;;;;;18.28;45.77;99208.19;5108673;28;20020;-73
2023/02/27 12:09:35;;;;;;;24.98;6.00;;;;;;;18.56;45.95;99206.78;5109423;28;20515;-73
2023/02/27 12:12:06;;;;;;;22.50;6.18;;;;;;;18.44;44.97;99207.91;5034063;28;20051;-75
2023/02/27 12:14:56;;;;;;;19.52;4.63;;;;;;;18.36;46.05;99219.19;5108968;27;20035;-75
2023/02/27 12:17:30;;;;;;;22.95;6.13;;;;;;;18.55;46.51;99213.66;5108263;27;20043;-75
2023/02/27 12:20:08;;;;;;;20.98;4.60;;;;;;;18.75;44.65;99216.97;5109576;28;20059;-75
2023/02/27 12:22:39;;;;;;;23.42;5.60;;;;;;;18.48;44.66;99211.59;5100119;28;20039;-74